createdAt,value
2018-02-19T00:00:36.692Z,48.10
2018-02-19T00:05:32.413Z,46.50
2018-02-19T00:08:00.496Z,46.80
2018-02-19T00:10:28.633Z,46.80
2018-02-19T00:12:56.221Z,46.90
2018-02-19T00:15:24.343Z,46.90
2018-02-19T00:17:52.487Z,47.40
2018-02-19T00:20:19.871Z,46.00
2018-02-19T00:22:47.242Z,47.00
2018-02-19T00:27:43.140Z,47.70
2018-02-19T00:30:10.500Z,46.70
2018-02-19T00:40:02.723Z,45.20
2018-02-19T00:42:30.812Z,45.30
2018-02-19T00:44:58.200Z,47.10
2018-02-19T00:47:26.300Z,46.00
2018-02-19T00:52:22.182Z,45.40
2018-02-19T00:54:49.503Z,46.70
2018-02-19T00:57:17.624Z,46.80
2018-02-19T00:59:45.751Z,49.00
2018-02-19T01:02:13.843Z,49.20
2018-02-19T01:04:41.175Z,49.10
2018-02-19T01:07:08.527Z,48.80
2018-02-19T01:09:36.776Z,48.70
2018-02-19T01:14:32.711Z,50.00
2018-02-19T01:21:56.671Z,49.20
2018-02-19T01:26:52.372Z,48.10
2018-02-19T01:31:48.176Z,48.20
2018-02-19T01:36:43.852Z,46.90
2018-02-19T01:39:11.749Z,47.00
2018-02-19T01:44:07.399Z,48.70
2018-02-19T01:46:34.756Z,48.80
2018-02-19T01:49:02.256Z,49.90
2018-02-19T01:56:26.912Z,48.00
2018-02-19T01:58:55.196Z,49.10
2018-02-19T02:01:22.568Z,47.00
2018-02-19T02:03:50.024Z,46.90
2018-02-19T02:06:17.385Z,47.70
2018-02-19T02:08:44.761Z,47.00
2018-02-19T02:11:12.092Z,48.40
2018-02-19T02:13:39.528Z,49.20
2018-02-19T02:16:07.615Z,49.30
2018-02-19T02:18:35.749Z,48.60
2018-02-19T02:21:03.968Z,48.80
2018-02-19T02:25:59.716Z,47.60
2018-02-19T02:28:27.112Z,48.50
2018-02-19T02:33:22.861Z,48.50
2018-02-19T02:35:50.253Z,47.90
2018-02-19T02:38:17.652Z,46.50
2018-02-19T02:40:45.175Z,46.40
2018-02-19T02:43:13.296Z,46.80
2018-02-19T02:45:40.940Z,46.60
2018-02-19T02:48:08.349Z,46.80
2018-02-19T02:50:35.688Z,47.00
2018-02-19T02:53:03.064Z,47.30
2018-02-19T02:55:31.238Z,47.40
2018-02-19T02:57:58.615Z,47.60
2018-02-19T03:00:26.699Z,47.30
2018-02-19T03:02:54.827Z,47.90
2018-02-19T03:07:50.480Z,47.10
2018-02-19T03:12:46.976Z,46.80
2018-02-19T03:15:14.343Z,47.10
2018-02-19T03:17:42.479Z,47.10
2018-02-19T03:20:10.696Z,47.00
2018-02-19T03:22:38.285Z,46.90
2018-02-19T03:27:34.651Z,47.40
2018-02-19T03:30:02.779Z,48.10
2018-02-19T03:34:58.616Z,45.60
2018-02-19T03:47:19.132Z,47.60
2018-02-19T03:49:47.220Z,46.70
2018-02-19T03:52:14.704Z,46.10
2018-02-19T03:54:42.079Z,46.50
2018-02-19T03:59:37.748Z,45.80
2018-02-19T04:02:05.084Z,45.40
2018-02-19T04:04:33.248Z,45.00
2018-02-19T04:07:00.576Z,44.90
2018-02-19T04:09:27.960Z,45.00
2018-02-19T04:14:24.451Z,45.40
2018-02-19T04:16:51.800Z,44.90
2018-02-19T04:19:19.903Z,45.30
2018-02-19T04:21:47.239Z,46.00
2018-02-19T04:24:14.593Z,45.60
2018-02-19T04:26:42.008Z,44.80
2018-02-19T04:29:09.358Z,44.70
2018-02-19T04:31:37.568Z,43.90
2018-02-19T04:34:05.737Z,44.40
2018-02-19T04:36:33.096Z,44.50
2018-02-19T04:39:00.547Z,45.10
2018-02-19T04:41:28.636Z,45.10
2018-02-19T04:43:56.732Z,44.20
2018-02-19T04:48:54.914Z,43.70
2018-02-19T04:53:50.541Z,44.90
2018-02-19T04:56:18.003Z,44.10
2018-02-19T04:58:45.346Z,43.90
2018-02-19T05:01:12.704Z,44.00
2018-02-19T05:06:09.004Z,44.80
2018-02-19T05:08:37.076Z,44.60
2018-02-19T05:11:04.740Z,44.10
2018-02-19T05:13:32.215Z,44.20
2018-02-19T05:16:00.411Z,44.50
2018-02-19T05:18:27.903Z,44.20
2018-02-19T05:20:56.065Z,45.00
2018-02-19T05:25:51.688Z,45.10
2018-02-19T05:30:48.232Z,44.60
2018-02-19T05:33:16.357Z,45.30
2018-02-19T05:35:44.459Z,44.90
2018-02-19T05:38:11.848Z,44.60
2018-02-19T05:43:07.456Z,44.10
2018-02-19T05:45:35.562Z,44.50
2018-02-19T05:48:02.927Z,44.50
2018-02-19T05:50:30.300Z,44.60
2018-02-19T05:52:58.425Z,44.30
2018-02-19T05:55:25.776Z,44.10
2018-02-19T06:00:22.884Z,44.50
2018-02-19T06:02:50.967Z,44.30
2018-02-19T06:07:46.625Z,44.90
2018-02-19T06:10:14.046Z,45.00
2018-02-19T06:12:41.403Z,45.30
2018-02-19T06:17:37.083Z,44.90
2018-02-19T06:20:05.197Z,44.80
2018-02-19T06:22:32.572Z,44.10
2018-02-19T06:25:00.759Z,44.30
2018-02-19T06:27:28.096Z,44.30
2018-02-19T06:29:55.731Z,44.30
2018-02-19T06:32:23.116Z,44.20
2018-02-19T06:34:50.756Z,44.20
2018-02-19T06:37:18.941Z,43.90
2018-02-19T06:39:47.076Z,44.20
2018-02-19T06:42:14.437Z,44.20
2018-02-19T06:44:42.645Z,44.70
2018-02-19T06:47:10.747Z,46.30
2018-02-19T06:52:06.549Z,44.00
2018-02-19T06:54:34.756Z,44.30
2018-02-19T06:57:02.173Z,44.30
2018-02-19T06:59:29.504Z,44.20
2018-02-19T07:04:25.500Z,44.70
2018-02-19T07:11:50.420Z,44.30
2018-02-19T07:14:17.884Z,44.20
2018-02-19T07:16:45.283Z,44.10
2018-02-19T07:24:09.236Z,44.00
2018-02-19T07:26:37.539Z,43.90
2018-02-19T07:29:04.892Z,44.70
2018-02-19T07:31:32.389Z,43.70
2018-02-19T07:36:28.091Z,43.40
2018-02-19T07:38:55.491Z,43.60
2018-02-19T07:41:22.890Z,44.00
2018-02-19T07:46:18.513Z,43.60
2018-02-19T07:48:45.880Z,43.30
2018-02-19T07:51:14.113Z,43.00
2018-02-19T07:56:10.849Z,43.50
2018-02-19T08:01:06.694Z,43.30
2018-02-19T08:03:34.919Z,43.60
2018-02-19T08:06:02.340Z,43.50
2018-02-19T08:10:58.165Z,43.40
2018-02-19T08:13:26.329Z,42.90
2018-02-19T08:15:54.421Z,43.00
2018-02-19T08:18:22.582Z,43.70
2018-02-19T08:20:50.723Z,42.60
2018-02-19T08:28:15.381Z,43.20
2018-02-19T08:30:42.742Z,42.90
2018-02-19T08:33:10.992Z,42.80
2018-02-19T08:35:38.335Z,42.30
2018-02-19T08:38:05.752Z,42.70
2018-02-19T08:40:33.117Z,42.60
2018-02-19T08:43:01.177Z,42.80
2018-02-19T08:45:28.580Z,43.30
2018-02-19T08:47:55.933Z,43.90
2018-02-19T08:50:24.017Z,44.40
2018-02-19T08:52:51.704Z,45.00
2018-02-19T08:55:19.071Z,45.10
2018-02-19T08:57:47.219Z,44.20
2018-02-19T09:00:15.586Z,43.60
2018-02-19T09:02:42.985Z,42.90
2018-02-19T09:05:10.327Z,43.10
2018-02-19T09:07:37.723Z,43.30
2018-02-19T09:10:05.812Z,42.90
2018-02-19T09:15:01.481Z,43.10
2018-02-19T09:17:28.853Z,42.60
2018-02-19T09:19:56.263Z,44.00
2018-02-19T09:24:51.912Z,47.20
2018-02-19T09:27:19.311Z,47.00
2018-02-19T09:32:15.887Z,46.50
2018-02-19T09:34:43.264Z,44.80
2018-02-19T09:37:11.378Z,45.00
2018-02-19T09:39:39.528Z,46.40
2018-02-19T09:42:07.020Z,47.40
2018-02-19T09:44:35.161Z,45.70
2018-02-19T09:47:02.572Z,47.70
2018-02-19T09:49:30.721Z,47.60
2018-02-19T09:51:58.839Z,47.10
2018-02-19T09:56:55.299Z,47.70
2018-02-19T09:59:23.380Z,44.90
2018-02-19T10:01:50.740Z,44.80
2018-02-19T10:04:18.192Z,45.70
2018-02-19T10:06:45.562Z,45.40
2018-02-19T10:09:13.660Z,46.50
2018-02-19T10:14:09.389Z,46.80
2018-02-19T10:16:36.798Z,47.40
2018-02-19T10:21:32.415Z,47.30
2018-02-19T10:24:00.981Z,46.30
2018-02-19T10:26:28.333Z,49.30
2018-02-19T10:28:56.588Z,47.60
2018-02-19T10:33:53.105Z,49.10
2018-02-19T10:36:20.636Z,47.60
2018-02-19T10:38:48.007Z,45.20
2018-02-19T10:41:15.364Z,45.20
2018-02-19T10:43:42.781Z,44.90
2018-02-19T10:46:10.169Z,45.90
2018-02-19T10:48:37.572Z,45.40
2018-02-19T10:51:05.719Z,45.40
2018-02-19T10:56:02.508Z,44.70
2018-02-19T10:58:29.904Z,45.70
2018-02-19T11:00:57.228Z,46.10
2018-02-19T11:05:52.892Z,46.90
2018-02-19T11:08:21.005Z,46.90
2018-02-19T11:13:16.769Z,46.40
2018-02-19T11:18:12.372Z,45.40
2018-02-19T11:20:40.460Z,44.60
2018-02-19T11:23:08.584Z,45.10
2018-02-19T11:25:35.932Z,45.90
2018-02-19T11:28:04.041Z,46.30
2018-02-19T11:32:59.732Z,46.70
2018-02-19T11:35:27.088Z,42.80
2018-02-19T11:37:54.453Z,46.00
2018-02-19T11:45:19.213Z,45.10
2018-02-19T11:47:47.332Z,44.70
2018-02-19T11:50:15.424Z,46.00
2018-02-19T11:52:42.800Z,48.30
2018-02-19T11:55:10.876Z,47.20
2018-02-19T11:57:38.274Z,45.50
2018-02-19T12:00:06.452Z,44.60
2018-02-19T12:02:33.838Z,44.50
2018-02-19T12:07:30.248Z,43.10
2018-02-19T12:09:58.448Z,43.20
2018-02-19T12:12:25.983Z,44.00
2018-02-19T12:14:53.340Z,45.60
2018-02-19T12:17:20.731Z,46.50
2018-02-19T12:22:16.491Z,46.80
2018-02-19T12:27:12.206Z,47.60
2018-02-19T12:29:40.577Z,45.30
2018-02-19T12:34:36.390Z,42.10
2018-02-19T12:37:03.868Z,42.30
2018-02-19T12:39:31.969Z,43.00
2018-02-19T12:42:00.185Z,45.10
2018-02-19T12:44:27.663Z,43.00
2018-02-19T12:46:55.199Z,42.10
2018-02-19T12:49:22.581Z,43.80
2018-02-19T12:51:49.928Z,46.50
2018-02-19T12:54:18.068Z,42.80
2018-02-19T12:56:46.219Z,43.10
2018-02-19T12:59:13.613Z,45.40
2018-02-19T13:04:10.832Z,43.90
2018-02-19T13:06:38.927Z,43.80
2018-02-19T13:09:07.027Z,42.00
2018-02-19T13:11:34.389Z,41.80
2018-02-19T13:14:02.562Z,43.60
2018-02-19T13:16:29.928Z,42.40
2018-02-19T13:21:25.684Z,42.90
2018-02-19T13:23:53.785Z,42.50
2018-02-19T13:26:22.005Z,44.20
2018-02-19T13:33:45.967Z,47.20
2018-02-19T13:36:14.063Z,44.40
2018-02-19T13:38:41.453Z,44.60
2018-02-19T13:41:09.568Z,42.70
2018-02-19T13:46:08.088Z,44.10
2018-02-19T13:51:04.635Z,44.30
2018-02-19T13:53:32.049Z,45.70
2018-02-19T13:56:00.470Z,44.50
2018-02-19T13:58:27.889Z,48.40
2018-02-19T14:00:56.022Z,45.20
2018-02-19T14:03:24.149Z,46.20
2018-02-19T14:10:48.132Z,48.10
2018-02-19T14:13:16.285Z,43.60
2018-02-19T14:18:11.981Z,47.50
2018-02-19T14:20:40.103Z,42.60
2018-02-19T14:23:08.216Z,44.00
2018-02-19T14:25:36.319Z,43.60
2018-02-19T14:28:03.699Z,41.60
2018-02-19T14:30:31.844Z,43.60
2018-02-19T14:32:59.228Z,43.60
2018-02-19T14:35:27.310Z,44.10
2018-02-19T14:40:23.065Z,42.80
2018-02-19T14:42:51.215Z,43.20
2018-02-19T14:45:19.301Z,44.30
2018-02-19T14:47:46.712Z,43.30
2018-02-19T14:50:14.149Z,44.20
2018-02-19T14:52:42.315Z,46.90
2018-02-19T14:55:10.457Z,43.50
2018-02-19T14:57:37.924Z,43.10
2018-02-19T15:00:06.193Z,45.30
2018-02-19T15:02:34.312Z,44.40
2018-02-19T15:07:30.158Z,43.40
2018-02-19T15:09:57.548Z,44.10
2018-02-19T15:12:24.955Z,46.00
2018-02-19T15:17:20.656Z,45.90
2018-02-19T15:19:48.008Z,46.90
2018-02-19T15:22:15.521Z,45.10
2018-02-19T15:24:43.787Z,45.50
2018-02-19T15:27:11.941Z,46.10
2018-02-19T15:29:39.537Z,47.40
2018-02-19T15:32:06.941Z,46.70
2018-02-19T15:34:35.049Z,46.60
2018-02-19T15:37:03.177Z,48.70
2018-02-19T15:39:31.347Z,48.20
2018-02-19T15:41:59.499Z,45.80
2018-02-19T15:44:26.841Z,45.80
2018-02-19T15:46:54.889Z,47.90
2018-02-19T15:49:22.308Z,46.70
2018-02-19T15:51:49.781Z,46.00
2018-02-19T15:56:46.000Z,46.50
2018-02-19T16:01:41.663Z,47.10
2018-02-19T16:04:09.768Z,46.20
2018-02-19T16:06:37.184Z,48.10
2018-02-19T16:11:33.222Z,46.20
2018-02-19T16:14:00.588Z,45.90
2018-02-19T16:16:28.710Z,45.40
2018-02-19T16:18:56.869Z,46.30
2018-02-19T16:21:24.252Z,49.00
2018-02-19T16:23:51.599Z,45.60
2018-02-19T16:26:18.975Z,44.30
2018-02-19T16:28:46.324Z,44.60
2018-02-19T16:31:14.472Z,45.80
2018-02-19T16:33:41.922Z,49.40
2018-02-19T16:36:09.257Z,45.80
2018-02-19T16:38:37.409Z,47.60
2018-02-19T16:48:29.776Z,46.20
2018-02-19T16:53:26.284Z,49.60
2018-02-19T16:58:21.969Z,49.00
2018-02-19T17:00:50.225Z,47.60
2018-02-19T17:03:18.336Z,45.80
2018-02-19T17:05:46.560Z,49.90
2018-02-19T17:08:13.984Z,47.60
2018-02-19T17:10:42.081Z,48.30
2018-02-19T17:13:09.423Z,49.30
2018-02-19T17:15:37.584Z,47.40
2018-02-19T17:18:05.722Z,47.20
2018-02-19T17:23:01.461Z,47.10
2018-02-19T17:27:57.164Z,45.80
2018-02-19T17:30:25.317Z,47.60
2018-02-19T17:32:53.483Z,46.40
2018-02-19T17:35:20.887Z,48.10
2018-02-19T17:37:48.291Z,47.90
2018-02-19T17:40:15.768Z,45.90
2018-02-19T17:42:43.244Z,46.90
2018-02-19T17:45:10.783Z,45.90
2018-02-19T17:47:38.183Z,47.30
2018-02-19T17:50:05.871Z,45.30
2018-02-19T17:52:33.242Z,46.70
2018-02-19T17:55:03.486Z,48.60
2018-02-19T17:57:31.280Z,44.50
2018-02-19T18:00:01.167Z,47.10
2018-02-19T18:02:30.294Z,47.60
2018-02-19T18:04:58.048Z,45.10
2018-02-19T18:09:54.412Z,46.40
2018-02-19T18:12:21.964Z,45.60
2018-02-19T18:17:17.684Z,50.50
2018-02-19T18:24:42.354Z,46.80
2018-02-19T18:27:10.173Z,48.30
2018-02-19T18:29:37.637Z,45.80
2018-02-19T18:32:05.001Z,46.60
2018-02-19T18:34:33.139Z,49.50
2018-02-19T18:37:00.537Z,46.00
2018-02-19T18:39:28.729Z,49.10
2018-02-19T18:41:56.140Z,48.80
2018-02-19T18:44:24.395Z,46.20
2018-02-19T18:46:51.806Z,46.20
2018-02-19T18:49:19.291Z,46.80
2018-02-19T18:51:46.714Z,47.20
2018-02-19T18:54:14.416Z,46.70
2018-02-19T18:56:42.589Z,46.70
2018-02-19T18:59:10.104Z,47.80
2018-02-19T19:01:38.449Z,47.20
2018-02-19T19:04:06.702Z,48.50
2018-02-19T19:09:16.009Z,47.30
2018-02-19T19:11:43.392Z,47.10
2018-02-19T19:14:10.937Z,46.40
2018-02-19T19:16:40.046Z,46.10
2018-02-19T19:19:08.269Z,46.70
2018-02-19T19:24:14.160Z,46.30
2018-02-19T19:26:42.646Z,47.50
2018-02-19T19:29:10.229Z,47.70
2018-02-19T19:36:46.783Z,49.40
2018-02-19T19:39:14.977Z,47.20
2018-02-19T19:41:42.367Z,48.50
2018-02-19T19:44:09.710Z,46.40
2018-02-19T19:46:37.898Z,50.40
2018-02-19T19:49:05.294Z,48.10
2018-02-19T19:51:34.993Z,47.60
2018-02-19T19:54:02.464Z,48.20
2018-02-19T19:56:29.901Z,50.30
2018-02-19T19:58:57.297Z,46.50
2018-02-19T20:01:24.712Z,47.90
2018-02-19T20:03:52.126Z,48.80
2018-02-19T20:06:19.668Z,48.60
2018-02-19T20:08:47.107Z,50.50
2018-02-19T20:11:14.519Z,51.50
2018-02-19T20:13:42.169Z,47.60
2018-02-19T20:16:09.589Z,47.20
2018-02-19T20:18:37.668Z,48.80
2018-02-19T20:21:05.819Z,47.30
2018-02-19T20:23:34.000Z,50.40
2018-02-19T20:26:03.295Z,47.90
2018-02-19T20:28:31.537Z,47.60
2018-02-19T20:30:59.619Z,49.90
2018-02-19T20:33:27.045Z,51.50
2018-02-19T20:35:54.508Z,48.20
2018-02-19T20:38:22.198Z,49.30
2018-02-19T20:40:49.596Z,47.70
2018-02-19T20:43:16.992Z,48.10
2018-02-19T20:45:44.444Z,48.30
2018-02-19T20:48:11.860Z,48.10
2018-02-19T20:50:39.301Z,48.30
2018-02-19T20:53:07.535Z,49.20
2018-02-19T20:55:34.917Z,47.00
2018-02-19T20:58:02.379Z,49.70
2018-02-19T21:00:30.514Z,48.00
2018-02-19T21:02:59.009Z,46.50
2018-02-19T21:05:26.501Z,47.90
2018-02-19T21:07:53.913Z,48.40
2018-02-19T21:10:21.317Z,49.60
2018-02-19T21:12:48.757Z,49.20
2018-02-19T21:15:16.922Z,48.40
2018-02-19T21:17:44.377Z,48.00
2018-02-19T21:20:11.817Z,48.80
2018-02-19T21:22:39.177Z,49.20
2018-02-19T21:25:06.596Z,50.10
2018-02-19T21:27:34.041Z,51.70
2018-02-19T21:30:01.498Z,52.40
2018-02-19T21:32:28.932Z,49.20
2018-02-19T21:34:56.421Z,50.10
2018-02-19T21:37:23.799Z,50.50
2018-02-19T21:39:51.245Z,48.70
2018-02-19T21:42:18.746Z,48.50
2018-02-19T21:44:49.248Z,50.10
2018-02-19T21:47:16.820Z,50.10
2018-02-19T21:49:44.924Z,48.30
2018-02-19T21:52:12.340Z,50.10
2018-02-19T21:54:39.705Z,48.10
2018-02-19T21:57:07.120Z,49.50
2018-02-19T21:59:34.449Z,48.00
2018-02-19T22:02:01.820Z,49.00
2018-02-19T22:04:29.204Z,50.40
2018-02-19T22:06:56.568Z,51.80
2018-02-19T22:09:23.978Z,49.30
2018-02-19T22:11:51.354Z,49.60
2018-02-19T22:14:18.774Z,50.00
2018-02-19T22:16:46.892Z,48.60
2018-02-19T22:19:14.305Z,48.90
2018-02-19T22:21:41.909Z,50.50
2018-02-19T22:24:09.289Z,47.60
2018-02-19T22:26:37.484Z,47.80
2018-02-19T22:29:05.644Z,50.70
2018-02-19T22:31:33.026Z,50.00
2018-02-19T22:34:00.416Z,52.00
2018-02-19T22:36:27.844Z,49.80
2018-02-19T22:38:56.041Z,47.10
2018-02-19T22:41:24.179Z,51.00
2018-02-19T22:43:52.365Z,49.10
2018-02-19T22:48:49.119Z,49.00
2018-02-19T22:51:17.213Z,49.70
2018-02-19T22:53:44.612Z,50.50
2018-02-19T22:56:12.761Z,49.80
2018-02-19T22:58:40.972Z,49.30
2018-02-19T23:03:36.765Z,50.70
2018-02-19T23:06:04.153Z,52.10
2018-02-19T23:08:31.523Z,50.70
2018-02-19T23:10:58.896Z,49.80
2018-02-19T23:13:26.275Z,52.00
2018-02-19T23:20:51.303Z,53.50
2018-02-19T23:25:47.497Z,53.00
2018-02-19T23:28:16.112Z,49.30
2018-02-19T23:30:43.485Z,49.00
2018-02-19T23:33:10.884Z,49.20
2018-02-19T23:35:38.967Z,49.70
2018-02-19T23:38:07.071Z,49.20
2018-02-19T23:40:34.651Z,48.60
2018-02-19T23:43:02.845Z,50.60
2018-02-19T23:45:30.229Z,51.20
2018-02-19T23:47:58.336Z,49.00
2018-02-19T23:57:50.579Z,53.50
